Snowmass, CO (81654)

9:11 PM MDT on September 03, 2015 (GMT -0600)
Capitol Creek Valley | | Change Station
CLOSE
Current Station
Personal Weather Station
Location: Snowmass, CO
Elevation: 7441 ft
Nearby Weather Stations

Elev 7441 ft 39.29 °N, 107.01 °W | Updated 13 seconds ago

Clear
Clear
52.2 °F
Feels Like 52.2 °F
N
6.0
Wind Variable Wind from South
Gusts 6.0 mph

Today
High -- | Low -- °F
--% Chance of Precip.
Yesterday
High -- | Low -- °F
Precip. -- in
6:38 AM 7:35 PM
Waning Gibbous, 64% visible
Pressure 29.91 in
Visibility 10.0 miles
Clouds Clear
Dew Point 48 °F
Humidity 87%
Rainfall 0.37 in
Snow Depth Not available.
UV 0 out of 12
Pollen 8.00 out of 12
Air Quality Not available.
Flu Activity Not available.
METAR KASE 040253Z AUTO 21008KT 10SM CLR 11/08 A3021 RMK AO2 SLP129 T01110083 53004
Pressure 29.91 in
Visibility 10.0 miles
Clouds Clear
Dew Point 48 °F
Humidity 87%
Rainfall 0.37 in
Snow Depth Not available.
UV 0 out of 12
Pollen 8.00 out of 12
Air Quality Not available.
Flu Activity Not available.
METAR KASE 040253Z AUTO 21008KT 10SM CLR 11/08 A3021 RMK AO2 SLP129 T01110083 53004

10-Day Weather Forecast

×

Almanac

Astronomy

Sep. 03, 2015 Rise Set
Actual Time
Civil Twilight
Nautical Twilight
Astronomical Twilight
Moon
Length of Visible Light
Length of Day
Tomorrow will be .
, % of the Moon is Illuminated

Today's Extremes

State Highs State Lows

Community

WunderPhotos

Upload Photos

1,852,110 photos uploaded!

WunderBlogs® & News

Nearby

Air Quality

  Air Quality AQ Index Pollutant
Not available.

Snow Depth

Station Depth Elevation

Earthquake Activity

City Distance Mag. Time & Date
Minimum magnitude displayed is 2.5.

Coastal Water Temperatures

Place Temperature

Stations

Nearby Weather Stations

Station Location Temp. Windchill Dew Point Humidity Wind Precip. Elev Updated Type